sensor_id;sensor_type;location;lat;lon;timestamp;temperature;humidity
16172;DHT22;8192;53.596;10.166;2022-12-29T00:00:09;7.30;99.90
16172;DHT22;8192;53.596;10.166;2022-12-29T00:02:37;7.30;99.90
16172;DHT22;8192;53.596;10.166;2022-12-29T00:05:05;7.30;99.90
16172;DHT22;8192;53.596;10.166;2022-12-29T00:07:34;7.30;99.90
16172;DHT22;8192;53.596;10.166;2022-12-29T00:10:01;7.40;99.90
16172;DHT22;8192;53.596;10.166;2022-12-29T00:12:43;7.40;99.90
16172;DHT22;8192;53.596;10.166;2022-12-29T00:15:28;7.40;99.90
16172;DHT22;8192;53.596;10.166;2022-12-29T00:18:04;7.40;99.90
16172;DHT22;8192;53.596;10.166;2022-12-29T00:20:33;7.50;99.90
16172;DHT22;8192;53.596;10.166;2022-12-29T00:23:20;7.50;99.90
16172;DHT22;8192;53.596;10.166;2022-12-29T00:26:12;7.50;99.90
16172;DHT22;8192;53.596;10.166;2022-12-29T00:28:57;7.50;99.90
16172;DHT22;8192;53.596;10.166;2022-12-29T00:31:41;7.50;99.90
16172;DHT22;8192;53.596;10.166;2022-12-29T00:34:25;7.50;99.90
16172;DHT22;8192;53.596;10.166;2022-12-29T00:37:09;7.60;99.90
16172;DHT22;8192;53.596;10.166;2022-12-29T00:39:38;7.50;99.90
16172;DHT22;8192;53.596;10.166;2022-12-29T00:42:21;7.60;99.90
16172;DHT22;8192;53.596;10.166;2022-12-29T00:45:06;7.60;99.90
16172;DHT22;8192;53.596;10.166;2022-12-29T00:47:33;7.60;99.90
16172;DHT22;8192;53.596;10.166;2022-12-29T00:50:00;7.70;99.90
16172;DHT22;8192;53.596;10.166;2022-12-29T00:52:26;7.70;99.90
16172;DHT22;8192;53.596;10.166;2022-12-29T00:54:56;7.60;99.90
16172;DHT22;8192;53.596;10.166;2022-12-29T00:57:27;7.60;99.90
16172;DHT22;8192;53.596;10.166;2022-12-29T00:59:54;7.60;99.90
16172;DHT22;8192;53.596;10.166;2022-12-29T01:02:22;7.70;99.90
16172;DHT22;8192;53.596;10.166;2022-12-29T01:04:48;7.70;99.90
16172;DHT22;8192;53.596;10.166;2022-12-29T01:07:16;7.70;99.90
16172;DHT22;8192;53.596;10.166;2022-12-29T01:09:43;7.70;99.90
16172;DHT22;8192;53.596;10.166;2022-12-29T01:12:29;7.70;99.90
16172;DHT22;8192;53.596;10.166;2022-12-29T01:15:12;7.80;99.90
16172;DHT22;8192;53.596;10.166;2022-12-29T01:17:39;7.70;99.90
16172;DHT22;8192;53.596;10.166;2022-12-29T01:20:07;7.70;99.90
16172;DHT22;8192;53.596;10.166;2022-12-29T01:22:34;7.80;99.90
16172;DHT22;8192;53.596;10.166;2022-12-29T01:25:01;7.90;99.90
16172;DHT22;8192;53.596;10.166;2022-12-29T01:27:30;7.80;99.90
16172;DHT22;8192;53.596;10.166;2022-12-29T01:29:57;7.80;99.90
16172;DHT22;8192;53.596;10.166;2022-12-29T01:32:24;7.80;99.90
16172;DHT22;8192;53.596;10.166;2022-12-29T01:34:51;7.80;99.90
16172;DHT22;8192;53.596;10.166;2022-12-29T01:37:19;7.70;99.90
16172;DHT22;8192;53.596;10.166;2022-12-29T01:39:46;7.80;99.90
16172;DHT22;8192;53.596;10.166;2022-12-29T01:42:17;7.90;99.90
16172;DHT22;8192;53.596;10.166;2022-12-29T01:44:59;7.90;99.90
16172;DHT22;8192;53.596;10.166;2022-12-29T01:47:31;7.90;99.90
16172;DHT22;8192;53.596;10.166;2022-12-29T01:50:05;7.90;99.90
16172;DHT22;8192;53.596;10.166;2022-12-29T01:52:35;7.90;99.90
16172;DHT22;8192;53.596;10.166;2022-12-29T01:55:04;8.00;99.90
16172;DHT22;8192;53.596;10.166;2022-12-29T01:57:34;8.00;99.90
16172;DHT22;8192;53.596;10.166;2022-12-29T02:00:07;8.00;99.90
16172;DHT22;8192;53.596;10.166;2022-12-29T02:02:37;8.00;99.90
16172;DHT22;8192;53.596;10.166;2022-12-29T02:05:10;8.00;99.90
16172;DHT22;8192;53.596;10.166;2022-12-29T02:07:38;8.00;99.90
16172;DHT22;8192;53.596;10.166;2022-12-29T02:10:06;8.00;99.90
16172;DHT22;8192;53.596;10.166;2022-12-29T02:12:34;8.00;99.90
16172;DHT22;8192;53.596;10.166;2022-12-29T02:15:03;8.00;99.90
16172;DHT22;8192;53.596;10.166;2022-12-29T02:21:02;8.00;99.90
16172;DHT22;8192;53.596;10.166;2022-12-29T02:23:58;8.00;99.90
16172;DHT22;8192;53.596;10.166;2022-12-29T02:26:57;8.00;99.90
16172;DHT22;8192;53.596;10.166;2022-12-29T02:29:52;8.00;99.90
16172;DHT22;8192;53.596;10.166;2022-12-29T02:32:29;8.10;99.90
16172;DHT22;8192;53.596;10.166;2022-12-29T02:35:04;8.10;99.90
16172;DHT22;8192;53.596;10.166;2022-12-29T02:37:39;8.10;99.90
16172;DHT22;8192;53.596;10.166;2022-12-29T02:40:18;8.00;99.90
16172;DHT22;8192;53.596;10.166;2022-12-29T02:42:51;8.00;99.90
16172;DHT22;8192;53.596;10.166;2022-12-29T02:45:27;8.10;99.90
16172;DHT22;8192;53.596;10.166;2022-12-29T02:48:04;8.00;99.90
16172;DHT22;8192;53.596;10.166;2022-12-29T02:50:36;8.10;99.90
16172;DHT22;8192;53.596;10.166;2022-12-29T02:53:06;8.20;99.90
16172;DHT22;8192;53.596;10.166;2022-12-29T02:55:34;8.10;99.90
16172;DHT22;8192;53.596;10.166;2022-12-29T02:58:17;8.10;99.90
16172;DHT22;8192;53.596;10.166;2022-12-29T03:00:55;8.10;99.90
16172;DHT22;8192;53.596;10.166;2022-12-29T03:03:36;8.10;99.90
16172;DHT22;8192;53.596;10.166;2022-12-29T03:06:21;8.10;99.90
16172;DHT22;8192;53.596;10.166;2022-12-29T03:08:58;8.10;99.90
16172;DHT22;8192;53.596;10.166;2022-12-29T03:11:31;8.10;99.90
16172;DHT22;8192;53.596;10.166;2022-12-29T03:14:23;8.20;99.90
16172;DHT22;8192;53.596;10.166;2022-12-29T03:17:18;8.10;99.90
16172;DHT22;8192;53.596;10.166;2022-12-29T03:19:50;8.10;99.90
16172;DHT22;8192;53.596;10.166;2022-12-29T03:22:22;8.10;99.90
16172;DHT22;8192;53.596;10.166;2022-12-29T03:24:59;8.10;99.90
16172;DHT22;8192;53.596;10.166;2022-12-29T03:27:30;8.10;99.90
16172;DHT22;8192;53.596;10.166;2022-12-29T03:30:02;8.10;99.90
16172;DHT22;8192;53.596;10.166;2022-12-29T03:32:33;8.10;99.90
16172;DHT22;8192;53.596;10.166;2022-12-29T03:35:04;8.20;99.90
16172;DHT22;8192;53.596;10.166;2022-12-29T03:37:36;8.10;99.90
16172;DHT22;8192;53.596;10.166;2022-12-29T03:40:05;8.20;99.90
16172;DHT22;8192;53.596;10.166;2022-12-29T03:42:35;8.20;99.90
16172;DHT22;8192;53.596;10.166;2022-12-29T03:45:05;8.20;99.90
16172;DHT22;8192;53.596;10.166;2022-12-29T03:47:33;8.20;99.90
16172;DHT22;8192;53.596;10.166;2022-12-29T03:50:00;8.20;99.90
16172;DHT22;8192;53.596;10.166;2022-12-29T03:52:29;8.20;99.90
16172;DHT22;8192;53.596;10.166;2022-12-29T03:54:58;8.40;99.90
16172;DHT22;8192;53.596;10.166;2022-12-29T03:57:26;8.30;99.90
16172;DHT22;8192;53.596;10.166;2022-12-29T03:59:53;8.30;99.90
16172;DHT22;8192;53.596;10.166;2022-12-29T04:02:20;8.30;99.90
16172;DHT22;8192;53.596;10.166;2022-12-29T04:04:47;8.20;99.90
16172;DHT22;8192;53.596;10.166;2022-12-29T04:07:14;8.20;99.90
16172;DHT22;8192;53.596;10.166;2022-12-29T04:09:43;8.20;99.90
16172;DHT22;8192;53.596;10.166;2022-12-29T04:12:10;8.30;99.90
16172;DHT22;8192;53.596;10.166;2022-12-29T04:14:37;8.20;99.90
16172;DHT22;8192;53.596;10.166;2022-12-29T04:17:04;8.20;99.90
16172;DHT22;8192;53.596;10.166;2022-12-29T04:19:31;8.20;99.90
16172;DHT22;8192;53.596;10.166;2022-12-29T04:21:58;8.20;99.90
16172;DHT22;8192;53.596;10.166;2022-12-29T04:24:25;8.20;99.90
16172;DHT22;8192;53.596;10.166;2022-12-29T04:26:54;8.20;99.90
16172;DHT22;8192;53.596;10.166;2022-12-29T04:29:21;8.20;99.90
16172;DHT22;8192;53.596;10.166;2022-12-29T04:31:48;8.30;99.90
16172;DHT22;8192;53.596;10.166;2022-12-29T04:34:15;8.30;99.90
16172;DHT22;8192;53.596;10.166;2022-12-29T04:36:42;8.30;99.90
16172;DHT22;8192;53.596;10.166;2022-12-29T04:39:09;8.30;99.90
16172;DHT22;8192;53.596;10.166;2022-12-29T04:41:36;8.30;99.90
16172;DHT22;8192;53.596;10.166;2022-12-29T04:44:05;8.20;99.90
16172;DHT22;8192;53.596;10.166;2022-12-29T04:46:32;8.20;99.90
16172;DHT22;8192;53.596;10.166;2022-12-29T04:49:00;8.20;99.90
16172;DHT22;8192;53.596;10.166;2022-12-29T04:51:34;8.20;99.90
16172;DHT22;8192;53.596;10.166;2022-12-29T04:54:01;8.20;99.90
16172;DHT22;8192;53.596;10.166;2022-12-29T04:56:28;8.30;99.90
16172;DHT22;8192;53.596;10.166;2022-12-29T04:58:55;8.30;99.90
16172;DHT22;8192;53.596;10.166;2022-12-29T05:01:25;8.30;99.90
16172;DHT22;8192;53.596;10.166;2022-12-29T05:03:52;8.40;99.90
16172;DHT22;8192;53.596;10.166;2022-12-29T05:06:20;8.40;99.90
16172;DHT22;8192;53.596;10.166;2022-12-29T05:08:47;8.50;99.90
16172;DHT22;8192;53.596;10.166;2022-12-29T05:11:14;8.50;99.90
16172;DHT22;8192;53.596;10.166;2022-12-29T05:13:44;8.50;99.90
16172;DHT22;8192;53.596;10.166;2022-12-29T05:16:11;8.60;99.90
16172;DHT22;8192;53.596;10.166;2022-12-29T05:18:39;8.50;99.90
16172;DHT22;8192;53.596;10.166;2022-12-29T05:21:06;8.60;99.90
16172;DHT22;8192;53.596;10.166;2022-12-29T05:23:33;8.50;99.90
16172;DHT22;8192;53.596;10.166;2022-12-29T05:26:00;8.60;99.90
16172;DHT22;8192;53.596;10.166;2022-12-29T05:28:27;8.70;99.90
16172;DHT22;8192;53.596;10.166;2022-12-29T05:30:55;8.60;99.90
16172;DHT22;8192;53.596;10.166;2022-12-29T05:33:22;8.60;99.90
16172;DHT22;8192;53.596;10.166;2022-12-29T05:35:50;8.70;99.90
16172;DHT22;8192;53.596;10.166;2022-12-29T05:38:23;8.70;99.90
16172;DHT22;8192;53.596;10.166;2022-12-29T05:40:50;8.70;99.90
16172;DHT22;8192;53.596;10.166;2022-12-29T05:43:17;8.70;99.90
16172;DHT22;8192;53.596;10.166;2022-12-29T05:45:48;8.70;99.90
16172;DHT22;8192;53.596;10.166;2022-12-29T05:48:15;8.70;99.90
16172;DHT22;8192;53.596;10.166;2022-12-29T05:50:42;8.60;99.90
16172;DHT22;8192;53.596;10.166;2022-12-29T05:53:11;8.60;99.90
16172;DHT22;8192;53.596;10.166;2022-12-29T05:55:38;8.60;99.90
16172;DHT22;8192;53.596;10.166;2022-12-29T05:58:05;8.70;99.90
16172;DHT22;8192;53.596;10.166;2022-12-29T06:00:32;8.70;99.90
16172;DHT22;8192;53.596;10.166;2022-12-29T06:02:59;8.70;99.90
16172;DHT22;8192;53.596;10.166;2022-12-29T06:05:26;8.80;99.90
16172;DHT22;8192;53.596;10.166;2022-12-29T06:07:53;8.80;99.90
16172;DHT22;8192;53.596;10.166;2022-12-29T06:10:22;8.80;99.90
16172;DHT22;8192;53.596;10.166;2022-12-29T06:12:49;8.80;99.90
16172;DHT22;8192;53.596;10.166;2022-12-29T06:15:17;8.80;99.90
16172;DHT22;8192;53.596;10.166;2022-12-29T06:17:44;8.70;99.90
16172;DHT22;8192;53.596;10.166;2022-12-29T06:20:11;8.90;99.90
16172;DHT22;8192;53.596;10.166;2022-12-29T06:22:38;8.90;99.90
16172;DHT22;8192;53.596;10.166;2022-12-29T06:25:05;8.90;99.90
16172;DHT22;8192;53.596;10.166;2022-12-29T06:27:34;9.00;99.90
16172;DHT22;8192;53.596;10.166;2022-12-29T06:30:01;9.00;99.90
16172;DHT22;8192;53.596;10.166;2022-12-29T06:32:29;8.90;99.90
16172;DHT22;8192;53.596;10.166;2022-12-29T06:34:56;8.90;99.90
16172;DHT22;8192;53.596;10.166;2022-12-29T06:37:23;8.90;99.90
16172;DHT22;8192;53.596;10.166;2022-12-29T06:39:50;8.90;99.90
16172;DHT22;8192;53.596;10.166;2022-12-29T06:42:17;9.00;99.90
16172;DHT22;8192;53.596;10.166;2022-12-29T06:44:45;9.00;99.90
16172;DHT22;8192;53.596;10.166;2022-12-29T06:47:12;9.00;99.90
16172;DHT22;8192;53.596;10.166;2022-12-29T06:49:51;9.00;99.90
16172;DHT22;8192;53.596;10.166;2022-12-29T06:52:18;9.00;99.90
16172;DHT22;8192;53.596;10.166;2022-12-29T06:54:45;9.00;99.90
16172;DHT22;8192;53.596;10.166;2022-12-29T06:57:19;8.90;99.90
16172;DHT22;8192;53.596;10.166;2022-12-29T06:59:48;8.90;99.90
16172;DHT22;8192;53.596;10.166;2022-12-29T07:02:19;8.90;99.90
16172;DHT22;8192;53.596;10.166;2022-12-29T07:04:46;9.00;99.90
16172;DHT22;8192;53.596;10.166;2022-12-29T07:07:18;8.90;99.90
16172;DHT22;8192;53.596;10.166;2022-12-29T07:09:45;9.00;99.90
16172;DHT22;8192;53.596;10.166;2022-12-29T07:12:12;8.90;99.90
16172;DHT22;8192;53.596;10.166;2022-12-29T07:14:39;9.00;99.90
16172;DHT22;8192;53.596;10.166;2022-12-29T07:17:08;8.90;99.90
16172;DHT22;8192;53.596;10.166;2022-12-29T07:19:35;8.90;99.90
16172;DHT22;8192;53.596;10.166;2022-12-29T07:22:02;8.80;99.90
16172;DHT22;8192;53.596;10.166;2022-12-29T07:24:29;8.80;99.90
16172;DHT22;8192;53.596;10.166;2022-12-29T07:26:56;8.70;99.90
16172;DHT22;8192;53.596;10.166;2022-12-29T07:29:23;8.70;99.90
16172;DHT22;8192;53.596;10.166;2022-12-29T07:31:50;8.60;99.90
16172;DHT22;8192;53.596;10.166;2022-12-29T07:34:19;8.60;99.90
16172;DHT22;8192;53.596;10.166;2022-12-29T07:36:48;8.60;99.90
16172;DHT22;8192;53.596;10.166;2022-12-29T07:39:15;8.60;99.90
16172;DHT22;8192;53.596;10.166;2022-12-29T07:41:42;8.50;99.90
16172;DHT22;8192;53.596;10.166;2022-12-29T07:44:09;8.60;99.90
16172;DHT22;8192;53.596;10.166;2022-12-29T07:46:36;8.60;99.90
16172;DHT22;8192;53.596;10.166;2022-12-29T07:49:03;8.60;99.90
16172;DHT22;8192;53.596;10.166;2022-12-29T07:51:32;8.70;99.90
16172;DHT22;8192;53.596;10.166;2022-12-29T07:53:59;8.70;99.90
16172;DHT22;8192;53.596;10.166;2022-12-29T07:56:26;8.70;99.90
16172;DHT22;8192;53.596;10.166;2022-12-29T07:58:55;8.80;99.90
16172;DHT22;8192;53.596;10.166;2022-12-29T08:01:22;8.80;99.90
16172;DHT22;8192;53.596;10.166;2022-12-29T08:03:49;8.80;99.90
16172;DHT22;8192;53.596;10.166;2022-12-29T08:06:16;8.90;99.90
16172;DHT22;8192;53.596;10.166;2022-12-29T08:08:45;8.90;99.90
16172;DHT22;8192;53.596;10.166;2022-12-29T08:11:12;8.80;99.90
16172;DHT22;8192;53.596;10.166;2022-12-29T08:13:39;8.80;99.90
16172;DHT22;8192;53.596;10.166;2022-12-29T08:16:07;8.80;99.90
16172;DHT22;8192;53.596;10.166;2022-12-29T08:18:34;8.70;99.90
16172;DHT22;8192;53.596;10.166;2022-12-29T08:21:12;8.70;99.90
16172;DHT22;8192;53.596;10.166;2022-12-29T08:23:41;8.70;99.90
16172;DHT22;8192;53.596;10.166;2022-12-29T08:26:11;8.70;99.90
16172;DHT22;8192;53.596;10.166;2022-12-29T08:28:38;8.70;99.90
16172;DHT22;8192;53.596;10.166;2022-12-29T08:31:15;8.70;99.90
16172;DHT22;8192;53.596;10.166;2022-12-29T08:33:58;8.70;99.90
16172;DHT22;8192;53.596;10.166;2022-12-29T08:36:36;8.80;99.90
16172;DHT22;8192;53.596;10.166;2022-12-29T08:39:03;8.80;99.90
16172;DHT22;8192;53.596;10.166;2022-12-29T08:41:47;8.70;99.90
16172;DHT22;8192;53.596;10.166;2022-12-29T08:44:14;8.80;99.90
16172;DHT22;8192;53.596;10.166;2022-12-29T08:46:41;8.80;99.90
16172;DHT22;8192;53.596;10.166;2022-12-29T08:49:10;9.00;99.90
16172;DHT22;8192;53.596;10.166;2022-12-29T08:51:37;9.10;99.90
16172;DHT22;8192;53.596;10.166;2022-12-29T08:54:04;9.10;99.90
16172;DHT22;8192;53.596;10.166;2022-12-29T08:56:33;9.20;99.90
16172;DHT22;8192;53.596;10.166;2022-12-29T08:59:01;9.20;99.90
16172;DHT22;8192;53.596;10.166;2022-12-29T09:01:31;9.20;99.90
16172;DHT22;8192;53.596;10.166;2022-12-29T09:03:59;9.20;99.90
16172;DHT22;8192;53.596;10.166;2022-12-29T09:06:26;9.20;99.90
16172;DHT22;8192;53.596;10.166;2022-12-29T09:08:54;9.20;99.90
16172;DHT22;8192;53.596;10.166;2022-12-29T09:11:23;9.40;99.90
16172;DHT22;8192;53.596;10.166;2022-12-29T09:13:51;9.40;99.90
16172;DHT22;8192;53.596;10.166;2022-12-29T09:16:21;9.40;99.90
16172;DHT22;8192;53.596;10.166;2022-12-29T09:18:48;9.20;99.90
16172;DHT22;8192;53.596;10.166;2022-12-29T09:21:15;9.10;99.90
16172;DHT22;8192;53.596;10.166;2022-12-29T09:23:42;9.30;99.90
16172;DHT22;8192;53.596;10.166;2022-12-29T09:26:09;9.20;99.90
16172;DHT22;8192;53.596;10.166;2022-12-29T09:28:36;9.30;99.90
16172;DHT22;8192;53.596;10.166;2022-12-29T09:31:04;9.40;99.90
16172;DHT22;8192;53.596;10.166;2022-12-29T09:33:33;9.40;99.90
16172;DHT22;8192;53.596;10.166;2022-12-29T09:36:01;9.50;99.90
16172;DHT22;8192;53.596;10.166;2022-12-29T09:38:29;9.50;99.90
16172;DHT22;8192;53.596;10.166;2022-12-29T09:41:00;9.40;99.90
16172;DHT22;8192;53.596;10.166;2022-12-29T09:43:44;9.40;99.90
16172;DHT22;8192;53.596;10.166;2022-12-29T09:46:22;9.30;99.90
16172;DHT22;8192;53.596;10.166;2022-12-29T09:49:00;9.30;99.90
16172;DHT22;8192;53.596;10.166;2022-12-29T09:51:31;9.40;99.90
16172;DHT22;8192;53.596;10.166;2022-12-29T09:54:04;9.50;99.90
16172;DHT22;8192;53.596;10.166;2022-12-29T09:56:41;9.50;99.90
16172;DHT22;8192;53.596;10.166;2022-12-29T09:59:14;9.60;99.90
16172;DHT22;8192;53.596;10.166;2022-12-29T10:01:46;9.70;99.90
16172;DHT22;8192;53.596;10.166;2022-12-29T10:04:17;9.80;99.90
16172;DHT22;8192;53.596;10.166;2022-12-29T10:06:49;9.90;99.90
16172;DHT22;8192;53.596;10.166;2022-12-29T10:09:22;9.90;99.90
16172;DHT22;8192;53.596;10.166;2022-12-29T10:12:09;9.90;99.90
16172;DHT22;8192;53.596;10.166;2022-12-29T10:14:49;9.90;99.90
16172;DHT22;8192;53.596;10.166;2022-12-29T10:17:29;10.10;99.90
16172;DHT22;8192;53.596;10.166;2022-12-29T10:20:27;10.20;99.90
16172;DHT22;8192;53.596;10.166;2022-12-29T10:23:09;10.10;99.90
16172;DHT22;8192;53.596;10.166;2022-12-29T10:25:40;10.00;99.90
16172;DHT22;8192;53.596;10.166;2022-12-29T10:28:18;10.10;99.90
16172;DHT22;8192;53.596;10.166;2022-12-29T10:30:50;10.10;99.90
16172;DHT22;8192;53.596;10.166;2022-12-29T10:33:21;10.10;99.90
16172;DHT22;8192;53.596;10.166;2022-12-29T10:36:04;10.10;99.90
16172;DHT22;8192;53.596;10.166;2022-12-29T10:38:42;10.00;99.90
16172;DHT22;8192;53.596;10.166;2022-12-29T10:41:15;10.00;99.90
16172;DHT22;8192;53.596;10.166;2022-12-29T10:43:46;9.90;99.90
16172;DHT22;8192;53.596;10.166;2022-12-29T10:46:16;9.90;99.90
16172;DHT22;8192;53.596;10.166;2022-12-29T10:48:44;10.10;99.90
16172;DHT22;8192;53.596;10.166;2022-12-29T10:51:20;10.20;99.90
16172;DHT22;8192;53.596;10.166;2022-12-29T10:53:51;10.20;99.90
16172;DHT22;8192;53.596;10.166;2022-12-29T10:56:31;10.10;99.90
16172;DHT22;8192;53.596;10.166;2022-12-29T10:59:06;10.00;99.90
16172;DHT22;8192;53.596;10.166;2022-12-29T11:01:40;9.80;99.90
16172;DHT22;8192;53.596;10.166;2022-12-29T11:04:31;9.80;99.90
16172;DHT22;8192;53.596;10.166;2022-12-29T11:07:01;9.90;99.90
16172;DHT22;8192;53.596;10.166;2022-12-29T11:09:34;9.90;99.90
16172;DHT22;8192;53.596;10.166;2022-12-29T11:12:18;9.90;99.90
16172;DHT22;8192;53.596;10.166;2022-12-29T11:14:45;10.00;99.90
16172;DHT22;8192;53.596;10.166;2022-12-29T11:17:15;10.10;99.90
16172;DHT22;8192;53.596;10.166;2022-12-29T11:19:42;10.20;99.90
16172;DHT22;8192;53.596;10.166;2022-12-29T11:22:21;10.10;99.90
16172;DHT22;8192;53.596;10.166;2022-12-29T11:24:50;10.10;99.90
16172;DHT22;8192;53.596;10.166;2022-12-29T11:27:20;10.00;99.90
16172;DHT22;8192;53.596;10.166;2022-12-29T11:29:50;10.00;99.90
16172;DHT22;8192;53.596;10.166;2022-12-29T11:32:20;10.20;99.90
16172;DHT22;8192;53.596;10.166;2022-12-29T11:34:48;10.30;99.90
16172;DHT22;8192;53.596;10.166;2022-12-29T11:37:22;10.40;99.90
16172;DHT22;8192;53.596;10.166;2022-12-29T11:39:54;10.40;99.90
16172;DHT22;8192;53.596;10.166;2022-12-29T11:42:32;10.50;99.90
16172;DHT22;8192;53.596;10.166;2022-12-29T11:45:05;10.40;99.90
16172;DHT22;8192;53.596;10.166;2022-12-29T11:47:33;10.40;99.90
16172;DHT22;8192;53.596;10.166;2022-12-29T11:50:04;10.40;99.90
16172;DHT22;8192;53.596;10.166;2022-12-29T11:52:35;10.50;99.90
16172;DHT22;8192;53.596;10.166;2022-12-29T11:55:13;10.50;99.90
16172;DHT22;8192;53.596;10.166;2022-12-29T11:57:44;10.40;99.90
16172;DHT22;8192;53.596;10.166;2022-12-29T12:00:15;10.40;99.90
16172;DHT22;8192;53.596;10.166;2022-12-29T12:02:50;10.40;99.90
16172;DHT22;8192;53.596;10.166;2022-12-29T12:05:23;10.30;99.90
16172;DHT22;8192;53.596;10.166;2022-12-29T12:07:57;10.20;99.90
16172;DHT22;8192;53.596;10.166;2022-12-29T12:10:30;10.10;99.90
16172;DHT22;8192;53.596;10.166;2022-12-29T12:13:04;10.10;99.90
16172;DHT22;8192;53.596;10.166;2022-12-29T12:15:38;10.20;99.90
16172;DHT22;8192;53.596;10.166;2022-12-29T12:18:11;10.20;99.90
16172;DHT22;8192;53.596;10.166;2022-12-29T12:20:46;10.10;99.90
16172;DHT22;8192;53.596;10.166;2022-12-29T12:23:28;10.10;99.90
16172;DHT22;8192;53.596;10.166;2022-12-29T12:26:02;10.10;99.90
16172;DHT22;8192;53.596;10.166;2022-12-29T12:28:37;10.00;99.90
16172;DHT22;8192;53.596;10.166;2022-12-29T12:31:15;10.00;99.90
16172;DHT22;8192;53.596;10.166;2022-12-29T12:33:46;10.00;99.90
16172;DHT22;8192;53.596;10.166;2022-12-29T12:36:27;10.00;99.90
16172;DHT22;8192;53.596;10.166;2022-12-29T12:39:02;10.00;99.90
16172;DHT22;8192;53.596;10.166;2022-12-29T12:41:44;10.00;99.90
16172;DHT22;8192;53.596;10.166;2022-12-29T12:44:20;10.00;99.90
16172;DHT22;8192;53.596;10.166;2022-12-29T12:50:12;10.00;99.90
16172;DHT22;8192;53.596;10.166;2022-12-29T12:52:53;9.90;99.90
16172;DHT22;8192;53.596;10.166;2022-12-29T12:55:39;9.80;99.90
16172;DHT22;8192;53.596;10.166;2022-12-29T12:58:16;9.80;99.90
16172;DHT22;8192;53.596;10.166;2022-12-29T13:00:56;9.80;99.90
16172;DHT22;8192;53.596;10.166;2022-12-29T13:03:34;9.80;99.90
16172;DHT22;8192;53.596;10.166;2022-12-29T13:06:16;9.80;99.90
16172;DHT22;8192;53.596;10.166;2022-12-29T13:09:00;9.90;99.90
16172;DHT22;8192;53.596;10.166;2022-12-29T13:11:38;9.80;99.90
16172;DHT22;8192;53.596;10.166;2022-12-29T13:14:28;9.80;99.90
16172;DHT22;8192;53.596;10.166;2022-12-29T13:17:04;9.90;99.90
16172;DHT22;8192;53.596;10.166;2022-12-29T13:19:41;9.90;99.90
16172;DHT22;8192;53.596;10.166;2022-12-29T13:22:13;10.00;99.90
16172;DHT22;8192;53.596;10.166;2022-12-29T13:25:14;10.00;99.90
16172;DHT22;8192;53.596;10.166;2022-12-29T13:27:48;10.10;99.90
16172;DHT22;8192;53.596;10.166;2022-12-29T13:30:20;10.20;99.90
16172;DHT22;8192;53.596;10.166;2022-12-29T13:32:55;10.10;99.90
16172;DHT22;8192;53.596;10.166;2022-12-29T13:35:35;9.90;99.90
16172;DHT22;8192;53.596;10.166;2022-12-29T13:38:11;9.70;99.90
16172;DHT22;8192;53.596;10.166;2022-12-29T13:40:43;9.60;99.90
16172;DHT22;8192;53.596;10.166;2022-12-29T13:43:14;9.50;99.90
16172;DHT22;8192;53.596;10.166;2022-12-29T13:45:43;9.40;99.90
16172;DHT22;8192;53.596;10.166;2022-12-29T13:48:15;9.30;99.90
16172;DHT22;8192;53.596;10.166;2022-12-29T13:50:48;9.30;99.90
16172;DHT22;8192;53.596;10.166;2022-12-29T13:53:22;9.20;99.90
16172;DHT22;8192;53.596;10.166;2022-12-29T13:55:56;9.20;99.90
16172;DHT22;8192;53.596;10.166;2022-12-29T13:58:32;9.20;99.90
16172;DHT22;8192;53.596;10.166;2022-12-29T14:01:09;9.20;99.90
16172;DHT22;8192;53.596;10.166;2022-12-29T14:03:55;9.20;99.90
16172;DHT22;8192;53.596;10.166;2022-12-29T14:06:24;9.30;99.90
16172;DHT22;8192;53.596;10.166;2022-12-29T14:08:53;9.30;99.90
16172;DHT22;8192;53.596;10.166;2022-12-29T14:11:23;9.30;99.90
16172;DHT22;8192;53.596;10.166;2022-12-29T14:13:55;9.40;99.90
16172;DHT22;8192;53.596;10.166;2022-12-29T14:16:27;9.40;99.90
16172;DHT22;8192;53.596;10.166;2022-12-29T14:18:55;9.50;99.90
16172;DHT22;8192;53.596;10.166;2022-12-29T14:21:25;9.20;99.90
16172;DHT22;8192;53.596;10.166;2022-12-29T14:27:44;7.40;99.90
16172;DHT22;8192;53.596;10.166;2022-12-29T14:30:53;7.30;99.90
16172;DHT22;8192;53.596;10.166;2022-12-29T14:33:21;7.30;99.90
16172;DHT22;8192;53.596;10.166;2022-12-29T14:35:52;7.30;99.90
16172;DHT22;8192;53.596;10.166;2022-12-29T14:38:21;7.30;99.90
16172;DHT22;8192;53.596;10.166;2022-12-29T14:40:50;7.30;99.90
16172;DHT22;8192;53.596;10.166;2022-12-29T14:43:23;7.30;99.90
16172;DHT22;8192;53.596;10.166;2022-12-29T14:46:01;7.30;99.90
16172;DHT22;8192;53.596;10.166;2022-12-29T14:48:46;7.30;99.90
16172;DHT22;8192;53.596;10.166;2022-12-29T14:51:24;7.30;99.90
16172;DHT22;8192;53.596;10.166;2022-12-29T14:53:53;7.40;99.90
16172;DHT22;8192;53.596;10.166;2022-12-29T14:56:25;7.40;99.90
16172;DHT22;8192;53.596;10.166;2022-12-29T14:58:55;7.30;99.90
16172;DHT22;8192;53.596;10.166;2022-12-29T15:01:31;7.40;99.90
16172;DHT22;8192;53.596;10.166;2022-12-29T15:04:06;7.50;99.90
16172;DHT22;8192;53.596;10.166;2022-12-29T15:06:40;7.40;99.90
16172;DHT22;8192;53.596;10.166;2022-12-29T15:09:15;7.30;99.90
16172;DHT22;8192;53.596;10.166;2022-12-29T15:11:49;7.30;99.90
16172;DHT22;8192;53.596;10.166;2022-12-29T15:14:35;7.30;99.90
16172;DHT22;8192;53.596;10.166;2022-12-29T15:17:21;7.30;99.90
16172;DHT22;8192;53.596;10.166;2022-12-29T15:19:52;7.20;99.90
16172;DHT22;8192;53.596;10.166;2022-12-29T15:25:47;7.30;99.90
16172;DHT22;8192;53.596;10.166;2022-12-29T15:28:16;7.30;99.90
16172;DHT22;8192;53.596;10.166;2022-12-29T15:30:53;7.30;99.90
16172;DHT22;8192;53.596;10.166;2022-12-29T15:33:23;7.20;99.90
16172;DHT22;8192;53.596;10.166;2022-12-29T15:35:54;7.30;99.90
16172;DHT22;8192;53.596;10.166;2022-12-29T15:38:24;7.20;99.90
16172;DHT22;8192;53.596;10.166;2022-12-29T15:40:53;7.20;99.90
16172;DHT22;8192;53.596;10.166;2022-12-29T15:43:33;7.30;99.90
16172;DHT22;8192;53.596;10.166;2022-12-29T15:49:08;7.30;99.90
16172;DHT22;8192;53.596;10.166;2022-12-29T15:51:38;7.30;99.90
16172;DHT22;8192;53.596;10.166;2022-12-29T15:54:06;7.30;99.90
16172;DHT22;8192;53.596;10.166;2022-12-29T15:56:41;7.30;99.90
16172;DHT22;8192;53.596;10.166;2022-12-29T15:59:25;7.30;99.90
16172;DHT22;8192;53.596;10.166;2022-12-29T16:01:56;7.20;99.90
16172;DHT22;8192;53.596;10.166;2022-12-29T16:04:29;7.20;99.90
16172;DHT22;8192;53.596;10.166;2022-12-29T16:06:58;7.20;99.90
16172;DHT22;8192;53.596;10.166;2022-12-29T16:09:31;7.20;99.90
16172;DHT22;8192;53.596;10.166;2022-12-29T16:11:59;7.10;99.90
16172;DHT22;8192;53.596;10.166;2022-12-29T16:14:31;7.10;99.90
16172;DHT22;8192;53.596;10.166;2022-12-29T16:17:02;7.00;99.90
16172;DHT22;8192;53.596;10.166;2022-12-29T16:19:35;6.90;99.90
16172;DHT22;8192;53.596;10.166;2022-12-29T16:22:09;6.90;99.90
16172;DHT22;8192;53.596;10.166;2022-12-29T16:24:38;6.80;99.90
16172;DHT22;8192;53.596;10.166;2022-12-29T16:27:08;6.80;99.90
16172;DHT22;8192;53.596;10.166;2022-12-29T16:29:36;6.90;99.90
16172;DHT22;8192;53.596;10.166;2022-12-29T16:35:37;6.80;99.90